Terminal Aerodrome Forecast
Issued by NWS

Home | Current Version | Previous Version | Text Only | Print | Product List | Glossary On
Versions: 1 2 3 4 5 6 7 8 9 10 11 12 13 14 15 16 17 18 19 20 21
000
FTUS42 KFFC 010349 AAA
TAFFTY
TAF AMD
KFTY 010349Z 0104/0124 00000KT P6SM SCT060
     FM011000 00000KT 4SM BR SCT005
     FM011500 07003KT P6SM SCT040 SCT250
     FM011900 12005KT P6SM BKN050=

USA.gov is the U.S. government's official web portal to all federal, state and local government web resources and services.